createdAt,value
2017-07-19T00:00:03.121Z,14.60
2017-07-19T00:02:31.234Z,14.60
2017-07-19T00:04:59.583Z,14.60
2017-07-19T00:07:27.742Z,14.60
2017-07-19T00:09:55.853Z,14.60
2017-07-19T00:12:23.965Z,14.50
2017-07-19T00:14:52.083Z,14.50
2017-07-19T00:17:20.451Z,14.50
2017-07-19T00:19:48.661Z,14.40
2017-07-19T00:22:16.783Z,14.40
2017-07-19T00:24:49.330Z,14.40
2017-07-19T00:27:17.454Z,14.30
2017-07-19T00:29:45.589Z,14.30
2017-07-19T00:32:13.777Z,14.30
2017-07-19T00:34:42.809Z,14.40
2017-07-19T00:37:10.926Z,14.50
2017-07-19T00:39:39.030Z,14.50
2017-07-19T00:42:07.163Z,14.40
2017-07-19T00:44:35.256Z,14.40
2017-07-19T00:47:03.382Z,14.40
2017-07-19T00:49:31.525Z,14.40
2017-07-19T00:51:59.629Z,14.40
2017-07-19T00:54:30.740Z,14.30
2017-07-19T00:56:58.870Z,14.30
2017-07-19T00:59:26.989Z,14.30
2017-07-19T01:01:55.655Z,14.30
2017-07-19T01:04:23.809Z,14.20
2017-07-19T01:06:51.979Z,14.20
2017-07-19T01:09:20.129Z,14.20
2017-07-19T01:11:48.267Z,14.30
2017-07-19T01:14:16.352Z,14.20
2017-07-19T01:16:44.506Z,14.20
2017-07-19T01:19:12.615Z,14.20
2017-07-19T01:21:40.753Z,14.20
2017-07-19T01:24:08.853Z,14.20
2017-07-19T01:26:36.973Z,14.10
2017-07-19T01:29:10.758Z,14.10
2017-07-19T01:31:38.897Z,14.00
2017-07-19T01:34:23.408Z,13.90
2017-07-19T01:36:51.557Z,13.80
2017-07-19T01:39:20.430Z,13.80
2017-07-19T01:41:48.587Z,13.80
2017-07-19T01:44:16.691Z,13.80
2017-07-19T01:46:44.797Z,13.70
2017-07-19T01:49:12.897Z,13.70
2017-07-19T01:51:41.027Z,13.70
2017-07-19T01:54:09.143Z,13.70
2017-07-19T01:56:37.291Z,13.70
2017-07-19T01:59:05.397Z,13.80
2017-07-19T02:01:33.536Z,13.80
2017-07-19T02:04:08.804Z,13.80
2017-07-19T02:06:36.914Z,13.80
2017-07-19T02:09:05.776Z,13.80
2017-07-19T02:11:33.945Z,13.80
2017-07-19T02:14:02.110Z,13.80
2017-07-19T02:16:43.339Z,13.70
2017-07-19T02:19:11.473Z,13.70
2017-07-19T02:21:39.618Z,13.60
2017-07-19T02:24:08.007Z,13.60
2017-07-19T02:26:36.107Z,13.60
2017-07-19T02:29:04.230Z,13.60
2017-07-19T02:31:32.367Z,13.60
2017-07-19T02:34:00.473Z,13.50
2017-07-19T02:36:28.597Z,13.50
2017-07-19T02:38:56.714Z,13.40
2017-07-19T02:41:24.930Z,13.40
2017-07-19T02:44:00.057Z,13.30
2017-07-19T02:46:28.194Z,13.30
2017-07-19T02:48:56.322Z,13.30
2017-07-19T02:51:24.473Z,13.30
2017-07-19T02:53:52.577Z,13.30
2017-07-19T02:56:20.712Z,13.30
2017-07-19T02:58:59.680Z,13.30
2017-07-19T03:01:28.572Z,13.30
2017-07-19T03:03:56.710Z,13.30
2017-07-19T03:06:26.073Z,13.30
2017-07-19T03:08:54.192Z,13.30
2017-07-19T03:11:22.332Z,13.20
2017-07-19T03:13:50.492Z,13.20
2017-07-19T03:16:18.690Z,13.20
2017-07-19T03:18:46.814Z,13.20
2017-07-19T03:21:14.985Z,13.30
2017-07-19T03:23:43.204Z,13.30
2017-07-19T03:26:11.457Z,13.30
2017-07-19T03:28:39.608Z,13.40
2017-07-19T03:31:07.747Z,13.40
2017-07-19T03:33:35.866Z,13.40
2017-07-19T03:36:07.111Z,13.50
2017-07-19T03:38:35.290Z,13.50
2017-07-19T03:41:03.548Z,13.50
2017-07-19T03:43:31.669Z,13.80
2017-07-19T03:45:59.767Z,14.00
2017-07-19T03:48:27.870Z,14.20
2017-07-19T03:50:55.982Z,14.40
2017-07-19T03:53:24.133Z,14.70
2017-07-19T03:55:53.045Z,14.60
2017-07-19T03:58:21.186Z,14.60
2017-07-19T04:00:49.318Z,14.50
2017-07-19T04:03:17.422Z,14.40
2017-07-19T04:05:45.523Z,14.40
2017-07-19T04:08:13.651Z,14.50
2017-07-19T04:10:41.779Z,14.90
2017-07-19T04:13:09.988Z,15.40
2017-07-19T04:15:38.082Z,15.90
2017-07-19T04:18:06.225Z,16.30
2017-07-19T04:20:34.351Z,16.70
2017-07-19T04:23:02.797Z,17.10
2017-07-19T04:25:30.892Z,17.50
2017-07-19T04:27:59.059Z,17.90
2017-07-19T04:30:52.479Z,18.20
2017-07-19T04:33:21.479Z,18.70
2017-07-19T04:35:49.597Z,19.50
2017-07-19T04:38:17.701Z,20.10
2017-07-19T04:40:45.808Z,20.30
2017-07-19T04:43:14.001Z,20.70
2017-07-19T04:45:42.165Z,21.30
2017-07-19T04:48:10.349Z,21.60
2017-07-19T04:50:38.613Z,21.90
2017-07-19T04:53:06.930Z,22.00
2017-07-19T04:55:35.166Z,21.60
2017-07-19T04:58:03.321Z,21.60
2017-07-19T05:00:31.541Z,21.80
2017-07-19T05:02:59.723Z,22.20
2017-07-19T05:05:27.870Z,22.50
2017-07-19T05:07:55.981Z,22.70
2017-07-19T05:10:24.122Z,22.60
2017-07-19T05:12:52.337Z,22.50
2017-07-19T05:15:20.510Z,22.60
2017-07-19T05:17:48.766Z,21.10
2017-07-19T05:20:16.888Z,19.50
2017-07-19T05:22:45.063Z,18.50
2017-07-19T05:25:13.353Z,17.90
2017-07-19T05:27:41.475Z,17.50
2017-07-19T05:30:09.692Z,17.40
2017-07-19T05:32:37.860Z,17.20
2017-07-19T05:35:06.088Z,17.10
2017-07-19T05:37:34.255Z,17.00
2017-07-19T05:40:02.554Z,17.00
2017-07-19T05:42:30.707Z,16.90
2017-07-19T05:45:00.794Z,16.90
2017-07-19T05:47:33.001Z,17.10
2017-07-19T05:50:01.180Z,17.10
2017-07-19T05:52:29.354Z,17.10
2017-07-19T05:54:57.528Z,17.20
2017-07-19T05:57:26.608Z,17.20
2017-07-19T05:59:54.873Z,17.20
2017-07-19T06:02:26.848Z,17.30
2017-07-19T06:04:55.248Z,17.30
2017-07-19T06:07:23.371Z,17.30
2017-07-19T06:09:51.479Z,17.30
2017-07-19T06:12:19.601Z,17.30
2017-07-19T06:14:47.705Z,17.30
2017-07-19T06:17:17.108Z,17.40
2017-07-19T06:19:45.322Z,17.40
2017-07-19T06:22:13.481Z,17.50
2017-07-19T06:24:42.511Z,17.50
2017-07-19T06:27:10.737Z,17.50
2017-07-19T06:29:39.670Z,17.60
2017-07-19T06:32:07.788Z,17.60
2017-07-19T06:34:36.001Z,17.70
2017-07-19T06:37:04.152Z,17.70
2017-07-19T06:39:33.258Z,17.80
2017-07-19T06:42:01.432Z,17.80
2017-07-19T06:44:30.338Z,18.00
2017-07-19T06:46:58.563Z,17.90
2017-07-19T06:49:27.598Z,18.10
2017-07-19T06:51:55.815Z,18.10
2017-07-19T06:54:24.030Z,18.20
2017-07-19T06:56:52.176Z,18.20
2017-07-19T06:59:22.182Z,18.30
2017-07-19T07:01:55.295Z,18.40
2017-07-19T07:04:23.458Z,18.50
2017-07-19T07:06:51.592Z,18.60
2017-07-19T07:09:19.779Z,18.60
2017-07-19T07:11:47.983Z,18.70
2017-07-19T07:14:16.214Z,18.80
2017-07-19T07:16:44.610Z,18.80
2017-07-19T07:19:12.782Z,19.00
2017-07-19T07:21:45.536Z,19.00
2017-07-19T07:24:13.856Z,19.10
2017-07-19T07:26:42.089Z,19.20
2017-07-19T07:29:10.251Z,19.30
2017-07-19T07:31:41.971Z,19.30
2017-07-19T07:34:10.318Z,19.40
2017-07-19T07:36:38.649Z,19.50
2017-07-19T07:39:06.754Z,19.60
2017-07-19T07:41:35.697Z,19.90
2017-07-19T07:44:04.277Z,19.80
2017-07-19T07:46:32.742Z,20.00
2017-07-19T07:49:04.426Z,20.10
2017-07-19T07:51:32.687Z,20.30
2017-07-19T07:54:01.114Z,20.50
2017-07-19T07:56:29.467Z,20.60
2017-07-19T07:58:57.904Z,20.80
2017-07-19T08:01:29.642Z,20.90
2017-07-19T08:03:57.770Z,21.00
2017-07-19T08:06:32.500Z,21.10
2017-07-19T08:09:02.683Z,21.20
2017-07-19T08:11:31.015Z,21.30
2017-07-19T08:14:02.978Z,21.50
2017-07-19T08:16:32.163Z,21.70
2017-07-19T08:19:00.307Z,21.70
2017-07-19T08:21:28.432Z,21.80
2017-07-19T08:23:59.508Z,21.90
2017-07-19T08:26:28.506Z,22.00
2017-07-19T08:28:56.743Z,22.20
2017-07-19T08:31:25.289Z,22.30
2017-07-19T08:33:53.444Z,22.40
2017-07-19T08:36:21.614Z,22.50
2017-07-19T08:38:49.766Z,22.70
2017-07-19T08:41:17.883Z,22.80
2017-07-19T08:43:51.403Z,22.70
2017-07-19T08:46:19.779Z,22.80
2017-07-19T08:48:48.113Z,22.80
2017-07-19T08:51:16.353Z,22.90
2017-07-19T08:53:45.133Z,22.90
2017-07-19T08:56:13.653Z,23.00
2017-07-19T08:58:41.907Z,23.00
2017-07-19T09:01:10.075Z,23.00
2017-07-19T09:03:42.240Z,23.10
2017-07-19T09:06:10.497Z,23.20
2017-07-19T09:08:39.624Z,23.30
2017-07-19T09:11:07.832Z,23.40
2017-07-19T09:13:35.948Z,23.40
2017-07-19T09:16:07.375Z,23.60
2017-07-19T09:18:35.479Z,23.70
2017-07-19T09:21:03.636Z,23.90
2017-07-19T09:23:31.810Z,24.00
2017-07-19T09:26:06.232Z,24.30
2017-07-19T09:28:34.446Z,24.40
2017-07-19T09:31:02.575Z,24.60
2017-07-19T09:33:32.762Z,24.80
2017-07-19T09:36:00.930Z,25.00
2017-07-19T09:38:29.156Z,25.20
2017-07-19T09:40:57.428Z,25.40
2017-07-19T09:43:25.687Z,25.60
2017-07-19T09:45:54.750Z,25.80
2017-07-19T09:48:23.010Z,25.90
2017-07-19T09:50:51.236Z,25.90
2017-07-19T09:53:20.404Z,26.10
2017-07-19T09:55:48.503Z,26.30
2017-07-19T09:58:16.715Z,26.30
2017-07-19T10:00:44.843Z,26.30
2017-07-19T10:03:13.145Z,26.40
2017-07-19T10:05:41.269Z,26.50
2017-07-19T10:08:09.447Z,26.40
2017-07-19T10:10:37.687Z,26.20
2017-07-19T10:13:08.789Z,26.20
2017-07-19T10:15:36.945Z,26.20
2017-07-19T10:18:05.215Z,26.20
2017-07-19T10:20:33.312Z,26.20
2017-07-19T10:23:09.226Z,26.20
2017-07-19T10:25:39.508Z,26.30
2017-07-19T10:28:07.910Z,26.30
2017-07-19T10:30:36.018Z,26.30
2017-07-19T10:33:05.045Z,26.30
2017-07-19T10:35:33.288Z,26.30
2017-07-19T10:38:01.524Z,26.30
2017-07-19T10:40:29.676Z,26.30
2017-07-19T10:45:30.666Z,26.30
2017-07-19T10:47:58.863Z,26.40
2017-07-19T10:50:27.021Z,26.40
2017-07-19T10:52:55.964Z,26.50
2017-07-19T10:55:24.173Z,26.70
2017-07-19T10:57:52.559Z,26.80
2017-07-19T11:00:22.100Z,26.80
2017-07-19T11:02:50.266Z,26.80
2017-07-19T11:05:18.432Z,26.80
2017-07-19T11:07:47.149Z,26.80
2017-07-19T11:10:15.288Z,26.70
2017-07-19T11:12:43.403Z,26.70
2017-07-19T11:15:12.806Z,26.70
2017-07-19T11:17:41.556Z,26.60
2017-07-19T11:20:09.876Z,26.40
2017-07-19T11:22:38.006Z,26.40
2017-07-19T11:25:06.366Z,26.40
2017-07-19T11:27:34.725Z,26.30
2017-07-19T11:30:02.926Z,26.40
2017-07-19T11:35:07.790Z,26.60
2017-07-19T11:37:36.008Z,26.60
2017-07-19T11:40:05.133Z,26.70
2017-07-19T11:42:34.511Z,26.60
2017-07-19T11:45:04.618Z,26.50
2017-07-19T11:47:32.952Z,26.50
2017-07-19T11:50:01.111Z,26.40
2017-07-19T11:52:29.368Z,26.40
2017-07-19T11:54:57.681Z,26.20
2017-07-19T11:57:25.953Z,26.00
2017-07-19T11:59:54.804Z,26.20
2017-07-19T12:02:22.960Z,26.30
2017-07-19T12:04:51.228Z,26.30
2017-07-19T12:07:20.099Z,26.40
2017-07-19T12:09:50.827Z,26.40
2017-07-19T12:12:18.954Z,26.40
2017-07-19T12:14:50.159Z,26.40
2017-07-19T12:17:18.347Z,26.30
2017-07-19T12:19:47.161Z,26.20
2017-07-19T12:22:15.347Z,26.20
2017-07-19T12:24:44.144Z,26.30
2017-07-19T12:27:12.365Z,26.40
2017-07-19T12:29:40.605Z,26.60
2017-07-19T12:32:09.020Z,26.70
2017-07-19T12:37:10.449Z,26.70
2017-07-19T12:39:38.621Z,26.70
2017-07-19T12:42:07.525Z,26.60
2017-07-19T12:44:39.782Z,26.60
2017-07-19T12:47:09.834Z,26.50
2017-07-19T12:49:38.356Z,26.50
2017-07-19T12:52:06.635Z,26.50
2017-07-19T12:54:36.002Z,26.50
2017-07-19T12:57:04.236Z,26.40
2017-07-19T12:59:32.473Z,26.50
2017-07-19T13:02:00.670Z,26.50
2017-07-19T13:04:29.631Z,26.50
2017-07-19T13:06:59.571Z,26.50
2017-07-19T13:09:27.819Z,26.50
2017-07-19T13:11:56.025Z,26.60
2017-07-19T13:14:24.170Z,26.60
2017-07-19T13:16:53.475Z,26.50
2017-07-19T13:19:21.979Z,26.50
2017-07-19T13:21:50.124Z,26.40
2017-07-19T13:24:18.235Z,26.40
2017-07-19T13:26:46.452Z,26.50
2017-07-19T13:29:15.749Z,26.70
2017-07-19T13:31:43.984Z,26.70
2017-07-19T13:34:12.148Z,26.80
2017-07-19T13:36:40.638Z,26.90
2017-07-19T13:39:10.158Z,26.90
2017-07-19T13:41:38.285Z,27.00
2017-07-19T13:44:06.517Z,27.10
2017-07-19T13:46:35.685Z,27.20
2017-07-19T13:49:05.215Z,27.40
2017-07-19T13:51:33.383Z,27.30
2017-07-19T13:54:05.616Z,27.40
2017-07-19T13:56:33.824Z,27.50
2017-07-19T13:59:02.900Z,27.60
2017-07-19T14:01:35.111Z,27.70
2017-07-19T14:04:03.368Z,27.80
2017-07-19T14:06:34.548Z,28.00
2017-07-19T14:09:02.842Z,28.00
2017-07-19T14:11:36.189Z,28.00
2017-07-19T14:14:04.988Z,28.10
2017-07-19T14:16:33.230Z,28.00
2017-07-19T14:19:01.363Z,28.00
2017-07-19T14:21:30.180Z,27.90
2017-07-19T14:23:58.354Z,27.90
2017-07-19T14:26:26.500Z,27.80
2017-07-19T14:28:56.943Z,27.80
2017-07-19T14:31:25.153Z,27.80
2017-07-19T14:33:54.414Z,27.80
2017-07-19T14:36:22.658Z,27.80
2017-07-19T14:38:50.859Z,27.70
2017-07-19T14:41:19.228Z,27.60
2017-07-19T14:43:47.490Z,27.60
2017-07-19T14:46:15.795Z,27.60
2017-07-19T14:48:43.950Z,27.70
2017-07-19T14:51:12.077Z,27.60
2017-07-19T14:53:43.616Z,27.60
2017-07-19T14:56:11.786Z,27.50
2017-07-19T14:58:41.905Z,27.60
2017-07-19T15:04:32.612Z,27.60
2017-07-19T15:37:20.104Z,27.60
2017-07-19T15:40:03.144Z,27.80
2017-07-19T15:42:36.769Z,28.00
2017-07-19T15:45:05.227Z,28.30
2017-07-19T16:17:04.816Z,28.70
2017-07-19T16:19:33.035Z,29.00
2017-07-19T16:22:03.269Z,29.00
2017-07-19T16:24:31.580Z,29.10
2017-07-19T16:27:01.632Z,29.00
2017-07-19T16:29:31.923Z,29.00
2017-07-19T16:32:00.166Z,29.10
2017-07-19T16:34:29.062Z,29.10
2017-07-19T16:36:57.194Z,29.00
2017-07-19T16:39:26.296Z,28.80
2017-07-19T16:41:54.554Z,28.80
2017-07-19T16:44:26.637Z,28.80
2017-07-19T16:46:56.843Z,28.60
2017-07-19T16:49:26.242Z,28.60
2017-07-19T16:51:54.569Z,28.40
2017-07-19T16:54:22.752Z,28.50
2017-07-19T16:56:57.249Z,28.60
2017-07-19T16:59:33.707Z,28.80
2017-07-19T17:02:04.579Z,28.80
2017-07-19T17:04:33.563Z,28.80
2017-07-19T17:07:14.409Z,28.80
2017-07-19T17:09:54.568Z,28.70
2017-07-19T17:12:22.740Z,28.50
2017-07-19T17:14:50.917Z,28.30
2017-07-19T17:17:23.593Z,28.10
2017-07-19T17:19:51.871Z,28.10
2017-07-19T17:22:21.880Z,28.00
2017-07-19T17:24:50.959Z,28.00
2017-07-19T17:27:19.848Z,27.90
2017-07-19T17:29:48.054Z,27.80
2017-07-19T17:32:16.303Z,27.60
2017-07-19T17:34:45.842Z,27.30
2017-07-19T17:37:14.143Z,27.20
2017-07-19T17:39:42.379Z,27.00
2017-07-19T17:42:11.734Z,27.00
2017-07-19T17:44:42.693Z,26.90
2017-07-19T17:47:18.173Z,26.80
2017-07-19T17:49:53.511Z,26.80
2017-07-19T17:52:22.316Z,26.80
2017-07-19T17:54:56.706Z,26.70
2017-07-19T17:57:26.925Z,26.60
2017-07-19T17:59:59.303Z,26.60
2017-07-19T18:02:27.692Z,26.50
2017-07-19T18:04:55.939Z,26.40
2017-07-19T18:07:29.227Z,26.40
2017-07-19T18:09:58.744Z,26.30
2017-07-19T18:12:33.064Z,26.30
2017-07-19T18:15:07.706Z,26.20
2017-07-19T18:17:35.895Z,26.20
2017-07-19T18:20:05.755Z,26.10
2017-07-19T20:50:51.773Z,19.80
2017-07-19T21:05:43.682Z,19.80
2017-07-19T21:08:12.082Z,19.70
2017-07-19T21:13:47.619Z,19.40
2017-07-19T21:16:34.879Z,19.20
2017-07-19T21:55:52.172Z,18.20
2017-07-19T21:58:35.299Z,18.30
2017-07-19T22:01:04.089Z,18.30
2017-07-19T22:03:33.101Z,18.40
2017-07-19T22:06:03.551Z,18.30
2017-07-19T22:08:34.312Z,18.40
2017-07-19T22:11:12.821Z,18.30
2017-07-19T22:13:40.934Z,18.40
2017-07-19T22:16:09.750Z,18.40
2017-07-19T22:18:39.491Z,18.40
2017-07-19T22:21:10.229Z,18.50
2017-07-19T22:23:39.135Z,18.50
2017-07-19T22:26:09.290Z,18.60
2017-07-19T22:28:37.420Z,18.70
2017-07-19T22:31:08.344Z,18.70
2017-07-19T22:33:37.251Z,18.80
2017-07-19T22:36:07.153Z,18.90
2017-07-19T22:38:36.206Z,18.90
2017-07-19T22:41:05.188Z,18.90
2017-07-19T22:43:33.331Z,19.00
2017-07-19T22:46:01.955Z,19.00
2017-07-19T22:48:31.616Z,19.00
2017-07-19T22:51:01.037Z,19.00
2017-07-19T22:53:29.153Z,19.00
2017-07-19T22:55:58.051Z,18.90
2017-07-19T22:58:26.575Z,18.90
2017-07-19T23:00:55.478Z,18.90
2017-07-19T23:03:35.499Z,18.90
2017-07-19T23:06:09.479Z,18.90
2017-07-19T23:08:38.362Z,18.90
2017-07-19T23:11:08.288Z,18.90
2017-07-19T23:13:37.420Z,18.90
2017-07-19T23:16:06.691Z,18.90
2017-07-19T23:18:34.816Z,18.90
2017-07-19T23:21:05.718Z,18.90
2017-07-19T23:23:34.612Z,18.80
2017-07-19T23:26:03.578Z,18.80
2017-07-19T23:28:32.860Z,18.80
2017-07-19T23:34:00.730Z,18.80
2017-07-19T23:36:28.931Z,18.70
2017-07-19T23:38:58.062Z,18.70
2017-07-19T23:41:29.091Z,18.70
2017-07-19T23:43:57.224Z,18.80
2017-07-19T23:46:25.354Z,18.80
2017-07-19T23:48:54.281Z,18.70
2017-07-19T23:51:23.196Z,18.70
2017-07-19T23:53:51.307Z,18.60
2017-07-19T23:56:22.038Z,18.60
2017-07-19T23:58:51.138Z,18.60
